sensor_id;sensor_type;location;lat;lon;timestamp;pressure;altitude;pressure_sealevel;temperature;humidity
68476;BME280;55464;48.266;14.188;2024-01-27T00:02:18;99119.31;;;10.65;49.67
68476;BME280;55464;48.266;14.188;2024-01-27T00:04:44;99126.59;;;10.61;49.06
68476;BME280;55464;48.266;14.188;2024-01-27T00:07:09;99130.22;;;10.70;49.03
68476;BME280;55464;48.266;14.188;2024-01-27T00:09:35;99121.75;;;10.67;48.98
68476;BME280;55464;48.266;14.188;2024-01-27T00:12:01;99117.94;;;10.54;49.21
68476;BME280;55464;48.266;14.188;2024-01-27T00:14:27;99122.00;;;10.56;49.16
68476;BME280;55464;48.266;14.188;2024-01-27T00:16:53;99110.81;;;10.39;49.55
68476;BME280;55464;48.266;14.188;2024-01-27T00:19:18;99127.97;;;10.36;49.66
68476;BME280;55464;48.266;14.188;2024-01-27T00:21:44;99115.16;;;10.31;49.55
68476;BME280;55464;48.266;14.188;2024-01-27T00:24:09;99121.03;;;10.25;49.22
68476;BME280;55464;48.266;14.188;2024-01-27T00:26:35;99116.16;;;10.35;49.37
68476;BME280;55464;48.266;14.188;2024-01-27T00:29:00;99119.50;;;10.18;49.91
68476;BME280;55464;48.266;14.188;2024-01-27T00:31:26;99137.66;;;10.47;49.91
68476;BME280;55464;48.266;14.188;2024-01-27T00:33:51;99118.75;;;10.54;49.66
68476;BME280;55464;48.266;14.188;2024-01-27T00:36:17;99118.97;;;10.44;50.02
68476;BME280;55464;48.266;14.188;2024-01-27T00:38:44;99123.06;;;10.47;50.19
68476;BME280;55464;48.266;14.188;2024-01-27T00:41:09;99128.41;;;10.29;50.75
68476;BME280;55464;48.266;14.188;2024-01-27T00:43:40;99108.88;;;10.39;50.41
68476;BME280;55464;48.266;14.188;2024-01-27T00:46:06;99140.34;;;10.38;50.45
68476;BME280;55464;48.266;14.188;2024-01-27T00:48:31;99115.66;;;10.33;50.53
68476;BME280;55464;48.266;14.188;2024-01-27T00:50:57;99128.16;;;10.39;50.38
68476;BME280;55464;48.266;14.188;2024-01-27T00:53:23;99125.41;;;10.39;50.35
68476;BME280;55464;48.266;14.188;2024-01-27T00:55:48;99139.84;;;10.22;50.79
68476;BME280;55464;48.266;14.188;2024-01-27T00:58:16;99135.25;;;10.04;51.47
68476;BME280;55464;48.266;14.188;2024-01-27T01:00:41;99138.63;;;10.01;51.52
68476;BME280;55464;48.266;14.188;2024-01-27T01:03:07;99126.16;;;10.17;51.11
68476;BME280;55464;48.266;14.188;2024-01-27T01:05:32;99151.25;;;10.16;51.00
68476;BME280;55464;48.266;14.188;2024-01-27T01:07:58;99139.84;;;10.09;51.35
68476;BME280;55464;48.266;14.188;2024-01-27T01:10:23;99132.00;;;10.02;51.24
68476;BME280;55464;48.266;14.188;2024-01-27T01:12:49;99129.75;;;10.04;51.26
68476;BME280;55464;48.266;14.188;2024-01-27T01:15:15;99130.88;;;10.03;51.37
68476;BME280;55464;48.266;14.188;2024-01-27T01:17:41;99139.75;;;9.86;51.47
68476;BME280;55464;48.266;14.188;2024-01-27T01:20:07;99129.56;;;9.73;51.90
68476;BME280;55464;48.266;14.188;2024-01-27T01:22:33;99138.16;;;9.71;51.20
68476;BME280;55464;48.266;14.188;2024-01-27T01:24:58;99135.50;;;9.66;51.69
68476;BME280;55464;48.266;14.188;2024-01-27T01:27:24;99132.53;;;9.62;51.59
68476;BME280;55464;48.266;14.188;2024-01-27T01:29:49;99123.94;;;9.64;51.24
68476;BME280;55464;48.266;14.188;2024-01-27T01:32:15;99126.03;;;9.25;52.14
68476;BME280;55464;48.266;14.188;2024-01-27T01:34:40;99132.94;;;9.56;51.48
68476;BME280;55464;48.266;14.188;2024-01-27T01:37:06;99141.00;;;9.52;51.32
68476;BME280;55464;48.266;14.188;2024-01-27T01:39:31;99154.56;;;9.62;51.06
68476;BME280;55464;48.266;14.188;2024-01-27T01:41:57;99142.50;;;9.58;50.86
68476;BME280;55464;48.266;14.188;2024-01-27T01:44:26;99156.69;;;9.79;50.51
68476;BME280;55464;48.266;14.188;2024-01-27T01:46:55;99161.50;;;9.74;50.56
68476;BME280;55464;48.266;14.188;2024-01-27T01:49:21;99158.03;;;9.68;50.28
68476;BME280;55464;48.266;14.188;2024-01-27T01:51:47;99166.19;;;9.59;50.65
68476;BME280;55464;48.266;14.188;2024-01-27T01:54:13;99166.19;;;9.59;50.31
68476;BME280;55464;48.266;14.188;2024-01-27T01:56:39;99170.34;;;9.57;50.44
68476;BME280;55464;48.266;14.188;2024-01-27T01:59:04;99176.03;;;9.33;51.44
68476;BME280;55464;48.266;14.188;2024-01-27T02:01:30;99186.94;;;9.52;50.84
68476;BME280;55464;48.266;14.188;2024-01-27T02:03:56;99173.09;;;9.57;50.59
68476;BME280;55464;48.266;14.188;2024-01-27T02:06:23;99147.69;;;9.46;50.57
68476;BME280;55464;48.266;14.188;2024-01-27T02:08:49;99181.75;;;9.64;50.32
68476;BME280;55464;48.266;14.188;2024-01-27T02:11:15;99176.94;;;9.42;50.70
68476;BME280;55464;48.266;14.188;2024-01-27T02:13:40;99165.56;;;9.49;50.49
68476;BME280;55464;48.266;14.188;2024-01-27T02:16:06;99178.59;;;9.57;50.59
68476;BME280;55464;48.266;14.188;2024-01-27T02:18:32;99175.31;;;9.41;50.92
68476;BME280;55464;48.266;14.188;2024-01-27T02:20:58;99185.47;;;9.26;51.05
68476;BME280;55464;48.266;14.188;2024-01-27T02:23:23;99184.97;;;9.24;51.46
68476;BME280;55464;48.266;14.188;2024-01-27T02:25:49;99200.66;;;9.38;50.88
68476;BME280;55464;48.266;14.188;2024-01-27T02:28:16;99186.19;;;9.32;50.57
68476;BME280;55464;48.266;14.188;2024-01-27T02:30:41;99200.91;;;9.08;51.30
68476;BME280;55464;48.266;14.188;2024-01-27T02:33:07;99204.03;;;9.35;50.88
68476;BME280;55464;48.266;14.188;2024-01-27T02:35:32;99190.00;;;9.36;50.89
68476;BME280;55464;48.266;14.188;2024-01-27T02:37:58;99194.09;;;9.20;50.73
68476;BME280;55464;48.266;14.188;2024-01-27T02:40:24;99205.25;;;9.28;50.85
68476;BME280;55464;48.266;14.188;2024-01-27T02:42:49;99202.41;;;9.34;50.90
68476;BME280;55464;48.266;14.188;2024-01-27T02:45:15;99206.41;;;9.08;51.49
68476;BME280;55464;48.266;14.188;2024-01-27T02:47:40;99201.41;;;9.11;51.11
68476;BME280;55464;48.266;14.188;2024-01-27T02:50:06;99221.22;;;9.26;50.86
68476;BME280;55464;48.266;14.188;2024-01-27T02:52:32;99222.34;;;9.25;50.59
68476;BME280;55464;48.266;14.188;2024-01-27T02:54:58;99244.75;;;9.19;50.66
68476;BME280;55464;48.266;14.188;2024-01-27T02:57:23;99241.50;;;9.31;50.55
68476;BME280;55464;48.266;14.188;2024-01-27T02:59:49;99240.78;;;9.25;50.46
68476;BME280;55464;48.266;14.188;2024-01-27T03:02:20;99248.50;;;9.42;50.44
68476;BME280;55464;48.266;14.188;2024-01-27T03:04:46;99254.63;;;9.53;49.88
68476;BME280;55464;48.266;14.188;2024-01-27T03:07:11;99244.44;;;9.53;50.13
68476;BME280;55464;48.266;14.188;2024-01-27T03:09:37;99234.28;;;9.54;49.43
68476;BME280;55464;48.266;14.188;2024-01-27T03:12:03;99241.59;;;9.58;49.47
68476;BME280;55464;48.266;14.188;2024-01-27T03:14:28;99245.91;;;9.64;49.73
68476;BME280;55464;48.266;14.188;2024-01-27T03:16:54;99244.88;;;9.60;49.43
68476;BME280;55464;48.266;14.188;2024-01-27T03:19:20;99242.41;;;9.59;49.16
68476;BME280;55464;48.266;14.188;2024-01-27T03:21:45;99252.09;;;9.56;49.13
68476;BME280;55464;48.266;14.188;2024-01-27T03:24:11;99241.13;;;9.37;49.25
68476;BME280;55464;48.266;14.188;2024-01-27T03:26:36;99249.22;;;9.48;49.17
68476;BME280;55464;48.266;14.188;2024-01-27T03:29:02;99263.72;;;9.20;50.09
68476;BME280;55464;48.266;14.188;2024-01-27T03:31:31;99261.19;;;9.24;50.40
68476;BME280;55464;48.266;14.188;2024-01-27T03:34:01;99261.06;;;9.29;49.66
68476;BME280;55464;48.266;14.188;2024-01-27T03:36:27;99263.81;;;9.29;49.57
68476;BME280;55464;48.266;14.188;2024-01-27T03:38:53;99264.88;;;9.33;49.20
68476;BME280;55464;48.266;14.188;2024-01-27T03:41:19;99274.47;;;9.17;49.78
68476;BME280;55464;48.266;14.188;2024-01-27T03:43:44;99273.66;;;9.16;49.82
68476;BME280;55464;48.266;14.188;2024-01-27T03:46:10;99274.81;;;9.29;49.56
68476;BME280;55464;48.266;14.188;2024-01-27T03:48:35;99275.44;;;9.26;49.75
68476;BME280;55464;48.266;14.188;2024-01-27T03:51:01;99274.53;;;9.31;49.67
68476;BME280;55464;48.266;14.188;2024-01-27T03:53:27;99266.13;;;9.22;49.45
68476;BME280;55464;48.266;14.188;2024-01-27T03:55:53;99279.16;;;9.35;49.20
68476;BME280;55464;48.266;14.188;2024-01-27T03:58:19;99275.44;;;9.26;49.24
68476;BME280;55464;48.266;14.188;2024-01-27T04:00:44;99277.06;;;9.08;49.62
68476;BME280;55464;48.266;14.188;2024-01-27T04:03:10;99290.97;;;9.17;49.82
68476;BME280;55464;48.266;14.188;2024-01-27T04:05:35;99285.03;;;9.09;49.60
68476;BME280;55464;48.266;14.188;2024-01-27T04:08:02;99288.22;;;9.17;49.44
68476;BME280;55464;48.266;14.188;2024-01-27T04:10:27;99298.19;;;9.13;49.89
68476;BME280;55464;48.266;14.188;2024-01-27T04:12:53;99289.06;;;9.17;49.48
68476;BME280;55464;48.266;14.188;2024-01-27T04:15:18;99295.16;;;9.14;49.58
68476;BME280;55464;48.266;14.188;2024-01-27T04:17:44;99296.47;;;9.17;49.58
68476;BME280;55464;48.266;14.188;2024-01-27T04:20:10;99288.31;;;9.12;50.12
68476;BME280;55464;48.266;14.188;2024-01-27T04:22:36;99283.34;;;9.14;49.56
68476;BME280;55464;48.266;14.188;2024-01-27T04:25:01;99313.66;;;9.27;49.62
68476;BME280;55464;48.266;14.188;2024-01-27T04:27:27;99305.50;;;9.03;50.59
68476;BME280;55464;48.266;14.188;2024-01-27T04:29:53;99326.72;;;9.17;49.99
68476;BME280;55464;48.266;14.188;2024-01-27T04:32:19;99336.84;;;9.21;50.11
68476;BME280;55464;48.266;14.188;2024-01-27T04:34:44;99341.09;;;9.33;49.71
68476;BME280;55464;48.266;14.188;2024-01-27T04:37:10;99335.28;;;9.34;49.37
68476;BME280;55464;48.266;14.188;2024-01-27T04:39:35;99350.09;;;9.38;49.72
68476;BME280;55464;48.266;14.188;2024-01-27T04:42:01;99348.31;;;9.48;49.35
68476;BME280;55464;48.266;14.188;2024-01-27T04:44:26;99348.75;;;9.55;49.18
68476;BME280;55464;48.266;14.188;2024-01-27T04:46:52;99339.22;;;9.47;48.60
68476;BME280;55464;48.266;14.188;2024-01-27T04:49:18;99348.88;;;9.44;49.39
68476;BME280;55464;48.266;14.188;2024-01-27T04:51:43;99342.13;;;9.56;49.08
68476;BME280;55464;48.266;14.188;2024-01-27T04:54:09;99342.34;;;9.59;49.13
68476;BME280;55464;48.266;14.188;2024-01-27T04:56:35;99350.16;;;9.52;49.33
68476;BME280;55464;48.266;14.188;2024-01-27T04:59:01;99350.25;;;9.47;49.12
68476;BME280;55464;48.266;14.188;2024-01-27T05:01:26;99365.03;;;9.51;49.22
68476;BME280;55464;48.266;14.188;2024-01-27T05:03:52;99355.09;;;9.36;49.47
68476;BME280;55464;48.266;14.188;2024-01-27T05:06:18;99356.72;;;9.37;49.34
68476;BME280;55464;48.266;14.188;2024-01-27T05:08:43;99361.19;;;9.33;49.32
68476;BME280;55464;48.266;14.188;2024-01-27T05:11:09;99361.91;;;9.20;49.87
68476;BME280;55464;48.266;14.188;2024-01-27T05:13:35;99363.03;;;9.19;49.92
68476;BME280;55464;48.266;14.188;2024-01-27T05:16:03;99381.84;;;9.31;49.54
68476;BME280;55464;48.266;14.188;2024-01-27T05:18:28;99372.53;;;9.07;50.31
68476;BME280;55464;48.266;14.188;2024-01-27T05:20:54;99393.38;;;9.33;49.73
68476;BME280;55464;48.266;14.188;2024-01-27T05:23:20;99394.50;;;9.32;49.38
68476;BME280;55464;48.266;14.188;2024-01-27T05:25:45;99379.47;;;9.24;50.03
68476;BME280;55464;48.266;14.188;2024-01-27T05:28:11;99385.50;;;9.26;49.74
68476;BME280;55464;48.266;14.188;2024-01-27T05:30:36;99380.72;;;9.32;49.56
68476;BME280;55464;48.266;14.188;2024-01-27T05:33:02;99394.63;;;9.21;49.89
68476;BME280;55464;48.266;14.188;2024-01-27T05:35:27;99401.66;;;9.33;49.83
68476;BME280;55464;48.266;14.188;2024-01-27T05:37:53;99399.94;;;9.37;49.85
68476;BME280;55464;48.266;14.188;2024-01-27T05:40:19;99407.00;;;9.24;49.92
68476;BME280;55464;48.266;14.188;2024-01-27T05:42:44;99404.56;;;8.98;51.02
68476;BME280;55464;48.266;14.188;2024-01-27T05:45:11;99409.84;;;8.95;50.69
68476;BME280;55464;48.266;14.188;2024-01-27T05:47:36;99408.69;;;8.96;50.40
68476;BME280;55464;48.266;14.188;2024-01-27T05:50:02;99410.59;;;9.00;50.35
68476;BME280;55464;48.266;14.188;2024-01-27T05:52:28;99393.78;;;9.02;50.21
68476;BME280;55464;48.266;14.188;2024-01-27T05:54:55;99405.81;;;9.06;50.26
68476;BME280;55464;48.266;14.188;2024-01-27T05:57:20;99408.94;;;8.99;50.43
68476;BME280;55464;48.266;14.188;2024-01-27T05:59:46;99402.56;;;9.04;50.14
68476;BME280;55464;48.266;14.188;2024-01-27T06:02:11;99395.97;;;9.05;49.98
68476;BME280;55464;48.266;14.188;2024-01-27T06:04:37;99412.47;;;9.05;49.88
68476;BME280;55464;48.266;14.188;2024-01-27T06:07:03;99416.59;;;9.02;50.07
68476;BME280;55464;48.266;14.188;2024-01-27T06:09:28;99415.69;;;8.88;50.24
68476;BME280;55464;48.266;14.188;2024-01-27T06:11:54;99415.69;;;8.88;50.23
68476;BME280;55464;48.266;14.188;2024-01-27T06:14:19;99426.78;;;9.02;50.02
68476;BME280;55464;48.266;14.188;2024-01-27T06:16:45;99422.44;;;8.96;49.89
68476;BME280;55464;48.266;14.188;2024-01-27T06:19:10;99407.88;;;8.95;50.14
68476;BME280;55464;48.266;14.188;2024-01-27T06:21:36;99423.88;;;8.93;50.28
68476;BME280;55464;48.266;14.188;2024-01-27T06:24:01;99423.34;;;8.91;50.23
68476;BME280;55464;48.266;14.188;2024-01-27T06:26:27;99399.53;;;8.81;50.03
68476;BME280;55464;48.266;14.188;2024-01-27T06:28:52;99412.59;;;8.95;50.04
68476;BME280;55464;48.266;14.188;2024-01-27T06:31:18;99421.00;;;9.03;49.67
68476;BME280;55464;48.266;14.188;2024-01-27T06:33:44;99420.66;;;8.86;49.83
68476;BME280;55464;48.266;14.188;2024-01-27T06:36:09;99407.56;;;8.78;49.69
68476;BME280;55464;48.266;14.188;2024-01-27T06:38:37;99430.91;;;8.80;49.98
68476;BME280;55464;48.266;14.188;2024-01-27T06:41:03;99440.72;;;8.86;49.57
68476;BME280;55464;48.266;14.188;2024-01-27T06:43:28;99433.94;;;8.79;49.75
68476;BME280;55464;48.266;14.188;2024-01-27T06:45:54;99444.09;;;8.54;50.47
68476;BME280;55464;48.266;14.188;2024-01-27T06:48:22;99448.59;;;8.69;50.21
68476;BME280;55464;48.266;14.188;2024-01-27T06:50:50;99428.09;;;8.61;49.92
68476;BME280;55464;48.266;14.188;2024-01-27T06:53:16;99451.25;;;8.79;50.04
68476;BME280;55464;48.266;14.188;2024-01-27T06:55:42;99462.06;;;8.70;50.20
68476;BME280;55464;48.266;14.188;2024-01-27T06:58:08;99451.69;;;8.62;49.81
68476;BME280;55464;48.266;14.188;2024-01-27T07:00:33;99470.97;;;8.57;51.36
68476;BME280;55464;48.266;14.188;2024-01-27T07:02:59;99467.38;;;8.62;50.42
68476;BME280;55464;48.266;14.188;2024-01-27T07:05:24;99466.47;;;8.72;50.43
68476;BME280;55464;48.266;14.188;2024-01-27T07:07:51;99470.25;;;8.76;49.98
68476;BME280;55464;48.266;14.188;2024-01-27T07:10:16;99478.50;;;8.76;50.48
68476;BME280;55464;48.266;14.188;2024-01-27T07:12:42;99476.84;;;8.75;50.11
68476;BME280;55464;48.266;14.188;2024-01-27T07:15:07;99484.59;;;8.73;50.33
68476;BME280;55464;48.266;14.188;2024-01-27T07:17:33;99479.44;;;8.90;50.14
68476;BME280;55464;48.266;14.188;2024-01-27T07:19:59;99475.75;;;8.76;50.30
68476;BME280;55464;48.266;14.188;2024-01-27T07:22:24;99485.91;;;8.80;50.21
68476;BME280;55464;48.266;14.188;2024-01-27T07:24:49;99488.88;;;8.84;50.31
68476;BME280;55464;48.266;14.188;2024-01-27T07:27:18;99497.41;;;8.82;50.23
68476;BME280;55464;48.266;14.188;2024-01-27T07:29:44;99505.44;;;8.79;51.10
68476;BME280;55464;48.266;14.188;2024-01-27T07:32:09;99515.28;;;8.80;50.67
68476;BME280;55464;48.266;14.188;2024-01-27T07:34:41;99512.78;;;8.83;50.60
68476;BME280;55464;48.266;14.188;2024-01-27T07:37:07;99522.59;;;8.65;51.33
68476;BME280;55464;48.266;14.188;2024-01-27T07:39:33;99528.91;;;8.66;51.22
68476;BME280;55464;48.266;14.188;2024-01-27T07:41:58;99511.06;;;8.63;50.62
68476;BME280;55464;48.266;14.188;2024-01-27T07:44:24;99506.91;;;8.66;50.69
68476;BME280;55464;48.266;14.188;2024-01-27T07:46:49;99526.06;;;8.76;50.78
68476;BME280;55464;48.266;14.188;2024-01-27T07:49:15;99521.91;;;8.79;50.97
68476;BME280;55464;48.266;14.188;2024-01-27T07:51:41;99504.59;;;8.78;50.56
68476;BME280;55464;48.266;14.188;2024-01-27T07:54:06;99518.19;;;8.94;50.56
68476;BME280;55464;48.266;14.188;2024-01-27T07:56:32;99513.69;;;9.03;50.17
68476;BME280;55464;48.266;14.188;2024-01-27T07:58:58;99517.22;;;9.08;50.58
68476;BME280;55464;48.266;14.188;2024-01-27T08:01:24;99521.00;;;9.13;50.37
68476;BME280;55464;48.266;14.188;2024-01-27T08:03:49;99529.69;;;8.96;50.42
68476;BME280;55464;48.266;14.188;2024-01-27T08:06:16;99521.22;;;8.92;50.67
68476;BME280;55464;48.266;14.188;2024-01-27T08:08:51;99520.94;;;8.94;50.35
68476;BME280;55464;48.266;14.188;2024-01-27T08:11:17;99521.69;;;8.99;50.64
68476;BME280;55464;48.266;14.188;2024-01-27T08:13:43;99527.94;;;9.10;50.81
68476;BME280;55464;48.266;14.188;2024-01-27T08:16:10;99520.81;;;9.04;49.85
68476;BME280;55464;48.266;14.188;2024-01-27T08:18:38;99532.75;;;9.18;49.84
68476;BME280;55464;48.266;14.188;2024-01-27T08:21:04;99519.66;;;9.10;49.78
68476;BME280;55464;48.266;14.188;2024-01-27T08:23:30;99534.19;;;9.16;50.02
68476;BME280;55464;48.266;14.188;2024-01-27T08:25:55;99528.78;;;9.05;50.04
68476;BME280;55464;48.266;14.188;2024-01-27T08:28:22;99535.75;;;8.98;50.39
68476;BME280;55464;48.266;14.188;2024-01-27T08:30:47;99530.22;;;9.03;50.63
68476;BME280;55464;48.266;14.188;2024-01-27T08:33:13;99529.53;;;9.11;50.47
68476;BME280;55464;48.266;14.188;2024-01-27T08:35:39;99524.34;;;9.09;50.80
68476;BME280;55464;48.266;14.188;2024-01-27T08:38:04;99537.41;;;9.23;50.31
68476;BME280;55464;48.266;14.188;2024-01-27T08:40:31;99541.91;;;9.14;50.19
68476;BME280;55464;48.266;14.188;2024-01-27T08:42:57;99537.06;;;9.30;50.06
68476;BME280;55464;48.266;14.188;2024-01-27T08:45:23;99544.22;;;9.25;49.66
68476;BME280;55464;48.266;14.188;2024-01-27T08:47:49;99535.75;;;9.22;49.94
68476;BME280;55464;48.266;14.188;2024-01-27T08:50:14;99549.03;;;9.15;50.34
68476;BME280;55464;48.266;14.188;2024-01-27T08:52:40;99560.09;;;9.34;49.62
68476;BME280;55464;48.266;14.188;2024-01-27T08:55:05;99557.94;;;9.31;49.75
68476;BME280;55464;48.266;14.188;2024-01-27T08:57:31;99545.06;;;9.26;49.14
68476;BME280;55464;48.266;14.188;2024-01-27T08:59:56;99540.72;;;9.20;50.02
68476;BME280;55464;48.266;14.188;2024-01-27T09:02:23;99550.47;;;9.36;50.06
68476;BME280;55464;48.266;14.188;2024-01-27T09:04:48;99550.41;;;9.41;49.22
68476;BME280;55464;48.266;14.188;2024-01-27T09:07:13;99553.28;;;9.50;48.87
68476;BME280;55464;48.266;14.188;2024-01-27T09:09:39;99571.22;;;9.48;49.51
68476;BME280;55464;48.266;14.188;2024-01-27T09:12:05;99534.59;;;9.28;49.84
68476;BME280;55464;48.266;14.188;2024-01-27T09:14:30;99551.44;;;9.45;49.51
68476;BME280;55464;48.266;14.188;2024-01-27T09:16:56;99545.66;;;9.47;49.52
68476;BME280;55464;48.266;14.188;2024-01-27T09:19:21;99515.91;;;9.25;49.30
68476;BME280;55464;48.266;14.188;2024-01-27T09:21:47;99556.19;;;9.40;49.09
68476;BME280;55464;48.266;14.188;2024-01-27T09:24:13;99553.69;;;9.43;49.55
68476;BME280;55464;48.266;14.188;2024-01-27T09:26:38;99529.19;;;9.42;49.14
68476;BME280;55464;48.266;14.188;2024-01-27T09:29:04;99552.03;;;9.42;48.81
68476;BME280;55464;48.266;14.188;2024-01-27T09:31:29;99544.22;;;9.50;48.57
68476;BME280;55464;48.266;14.188;2024-01-27T09:33:55;99558.50;;;9.52;48.62
68476;BME280;55464;48.266;14.188;2024-01-27T09:36:21;99582.41;;;9.56;48.65
68476;BME280;55464;48.266;14.188;2024-01-27T09:38:47;99571.69;;;9.55;48.41
68476;BME280;55464;48.266;14.188;2024-01-27T09:41:13;99564.72;;;9.62;48.73
68476;BME280;55464;48.266;14.188;2024-01-27T09:43:43;99566.66;;;9.62;48.74
68476;BME280;55464;48.266;14.188;2024-01-27T09:46:16;99567.16;;;9.64;48.89
68476;BME280;55464;48.266;14.188;2024-01-27T09:48:42;99555.13;;;9.60;48.82
68476;BME280;55464;48.266;14.188;2024-01-27T09:51:10;99565.84;;;9.61;48.49
68476;BME280;55464;48.266;14.188;2024-01-27T09:53:36;99567.66;;;9.71;48.74
68476;BME280;55464;48.266;14.188;2024-01-27T09:56:03;99569.91;;;9.64;47.99
68476;BME280;55464;48.266;14.188;2024-01-27T09:58:31;99568.91;;;9.79;48.36
68476;BME280;55464;48.266;14.188;2024-01-27T10:00:59;99569.38;;;9.86;48.51
68476;BME280;55464;48.266;14.188;2024-01-27T10:03:26;99558.66;;;9.84;48.10
68476;BME280;55464;48.266;14.188;2024-01-27T10:05:53;99574.16;;;9.99;47.97
68476;BME280;55464;48.266;14.188;2024-01-27T10:08:20;99571.41;;;9.99;48.63
68476;BME280;55464;48.266;14.188;2024-01-27T10:10:47;99576.16;;;10.13;48.45
68476;BME280;55464;48.266;14.188;2024-01-27T10:13:14;99575.06;;;10.14;49.25
68476;BME280;55464;48.266;14.188;2024-01-27T10:15:43;99570.13;;;10.11;48.25
68476;BME280;55464;48.266;14.188;2024-01-27T10:18:09;99574.97;;;10.00;46.92
68476;BME280;55464;48.266;14.188;2024-01-27T10:20:39;99581.16;;;10.11;46.41
68476;BME280;55464;48.266;14.188;2024-01-27T10:23:12;99577.72;;;10.00;46.04
68476;BME280;55464;48.266;14.188;2024-01-27T10:25:38;99579.28;;;10.06;46.42
68476;BME280;55464;48.266;14.188;2024-01-27T10:28:07;99577.28;;;10.12;46.65
68476;BME280;55464;48.266;14.188;2024-01-27T10:30:34;99585.63;;;10.07;46.46
68476;BME280;55464;48.266;14.188;2024-01-27T10:32:59;99585.56;;;10.12;45.65
68476;BME280;55464;48.266;14.188;2024-01-27T10:35:25;99581.53;;;10.23;45.74
68476;BME280;55464;48.266;14.188;2024-01-27T10:37:52;99554.25;;;10.02;45.80
68476;BME280;55464;48.266;14.188;2024-01-27T10:40:18;99568.03;;;10.21;45.84
68476;BME280;55464;48.266;14.188;2024-01-27T10:42:45;99570.50;;;10.23;45.53
68476;BME280;55464;48.266;14.188;2024-01-27T10:45:11;99558.97;;;10.21;45.93
68476;BME280;55464;48.266;14.188;2024-01-27T10:47:38;99564.88;;;10.33;45.34
68476;BME280;55464;48.266;14.188;2024-01-27T10:50:08;99567.47;;;10.44;45.19
68476;BME280;55464;48.266;14.188;2024-01-27T10:52:41;99573.72;;;10.49;44.78
68476;BME280;55464;48.266;14.188;2024-01-27T10:55:09;99576.25;;;10.46;44.45
68476;BME280;55464;48.266;14.188;2024-01-27T10:57:37;99560.88;;;10.58;44.65
68476;BME280;55464;48.266;14.188;2024-01-27T11:00:05;99575.09;;;10.66;44.87
68476;BME280;55464;48.266;14.188;2024-01-27T11:02:35;99588.28;;;10.69;45.25
68476;BME280;55464;48.266;14.188;2024-01-27T11:05:04;99565.13;;;10.70;44.06
68476;BME280;55464;48.266;14.188;2024-01-27T11:07:34;99576.81;;;10.62;44.05
68476;BME280;55464;48.266;14.188;2024-01-27T11:10:00;99571.91;;;10.58;44.52
68476;BME280;55464;48.266;14.188;2024-01-27T11:12:26;99567.16;;;10.64;43.51
68476;BME280;55464;48.266;14.188;2024-01-27T11:14:52;99563.41;;;10.55;43.83
68476;BME280;55464;48.266;14.188;2024-01-27T11:17:19;99550.34;;;10.60;44.28
68476;BME280;55464;48.266;14.188;2024-01-27T11:19:45;99559.28;;;10.71;44.16
68476;BME280;55464;48.266;14.188;2024-01-27T11:22:25;99547.97;;;10.73;43.97
68476;BME280;55464;48.266;14.188;2024-01-27T11:27:39;99564.72;;;10.76;43.07
68476;BME280;55464;48.266;14.188;2024-01-27T11:30:06;99577.25;;;10.69;43.68
68476;BME280;55464;48.266;14.188;2024-01-27T11:32:37;99567.63;;;10.85;43.47
68476;BME280;55464;48.266;14.188;2024-01-27T11:35:04;99552.38;;;10.88;43.31
68476;BME280;55464;48.266;14.188;2024-01-27T11:37:30;99567.63;;;10.99;43.21
68476;BME280;55464;48.266;14.188;2024-01-27T11:40:06;99571.84;;;11.10;43.30
68476;BME280;55464;48.266;14.188;2024-01-27T11:42:32;99584.63;;;11.20;42.53
68476;BME280;55464;48.266;14.188;2024-01-27T11:44:58;99581.97;;;11.29;42.99
68476;BME280;55464;48.266;14.188;2024-01-27T11:47:25;99578.81;;;11.35;43.22
68476;BME280;55464;48.266;14.188;2024-01-27T11:49:55;99579.13;;;11.48;42.70
68476;BME280;55464;48.266;14.188;2024-01-27T11:52:22;99578.41;;;11.42;42.87
68476;BME280;55464;48.266;14.188;2024-01-27T11:54:58;99598.66;;;11.65;42.49
68476;BME280;55464;48.266;14.188;2024-01-27T11:57:24;99593.53;;;11.72;42.62
68476;BME280;55464;48.266;14.188;2024-01-27T11:59:54;99576.56;;;11.65;42.62
68476;BME280;55464;48.266;14.188;2024-01-27T12:02:20;99566.56;;;11.69;42.50
68476;BME280;55464;48.266;14.188;2024-01-27T12:04:47;99567.34;;;11.84;41.99
68476;BME280;55464;48.266;14.188;2024-01-27T12:07:14;99549.34;;;11.72;41.88
68476;BME280;55464;48.266;14.188;2024-01-27T12:09:39;99570.00;;;12.03;41.81
68476;BME280;55464;48.266;14.188;2024-01-27T12:12:05;99552.84;;;12.15;41.58
68476;BME280;55464;48.266;14.188;2024-01-27T12:14:42;99537.19;;;12.24;41.16
68476;BME280;55464;48.266;14.188;2024-01-27T12:17:10;99548.06;;;12.20;41.03
68476;BME280;55464;48.266;14.188;2024-01-27T12:19:36;99560.66;;;12.13;39.51
68476;BME280;55464;48.266;14.188;2024-01-27T12:22:03;99551.78;;;12.38;40.01
68476;BME280;55464;48.266;14.188;2024-01-27T12:24:28;99550.38;;;12.49;40.08
68476;BME280;55464;48.266;14.188;2024-01-27T12:26:55;99548.34;;;12.64;39.66
68476;BME280;55464;48.266;14.188;2024-01-27T12:29:23;99558.91;;;12.62;39.60
68476;BME280;55464;48.266;14.188;2024-01-27T12:31:49;99544.28;;;12.84;38.58
68476;BME280;55464;48.266;14.188;2024-01-27T12:34:15;99551.50;;;13.02;38.35
68476;BME280;55464;48.266;14.188;2024-01-27T12:36:41;99532.00;;;13.39;37.44
68476;BME280;55464;48.266;14.188;2024-01-27T12:39:08;99537.06;;;14.47;35.83
68476;BME280;55464;48.266;14.188;2024-01-27T12:41:34;99542.84;;;15.83;32.17
68476;BME280;55464;48.266;14.188;2024-01-27T12:44:00;99534.28;;;17.31;30.08
68476;BME280;55464;48.266;14.188;2024-01-27T12:46:26;99521.94;;;17.69;28.87
68476;BME280;55464;48.266;14.188;2024-01-27T12:48:52;99542.81;;;16.68;29.87
68476;BME280;55464;48.266;14.188;2024-01-27T12:51:18;99522.91;;;16.44;30.45
68476;BME280;55464;48.266;14.188;2024-01-27T12:53:44;99538.03;;;16.35;30.76
68476;BME280;55464;48.266;14.188;2024-01-27T12:56:14;99539.47;;;16.41;30.96